Boone Observed Data For Previous 48 Hours

Caption
Day and Hour Reservoir Elevation (behind dam)* Tailwater Elevation (below dam)* Average Hourly Discharge*
7/14/2018 2 AM EDT 1,353.55 1,260.56 0
7/14/2018 3 AM EDT 1,353.52 1,262.36 192
7/14/2018 4 AM EDT 1,353.50 1,262.91 3,252
7/14/2018 5 AM EDT 1,353.43 1,262.98 3,192
7/14/2018 6 AM EDT 1,353.33 1,262.94 3,161
7/14/2018 7 AM EDT 1,353.29 1,262.72 3,079
7/14/2018 8 AM EDT 1,353.30 1,261.50 53
7/14/2018 9 AM EDT 1,353.36 1,261.13 0
7/14/2018 10 AM EDT 1,353.37 1,260.97 0
7/14/2018 11 AM EDT 1,353.41 1,260.92 0
7/14/2018 12 PM EDT 1,353.44 1,260.69 0
7/14/2018 1 PM EDT 1,353.47 1,260.66 0
7/14/2018 2 PM EDT 1,353.44 1,262.46 186
7/14/2018 3 PM EDT 1,353.39 1,262.96 3,750
7/14/2018 4 PM EDT 1,353.29 1,263.04 3,467
7/14/2018 5 PM EDT 1,353.24 1,262.73 3,189
7/14/2018 6 PM EDT 1,353.11 1,262.96 3,205
7/14/2018 7 PM EDT 1,353.06 1,263.00 3,249
7/14/2018 8 PM EDT 1,353.02 1,263.00 3,592
7/14/2018 9 PM EDT 1,353.14 1,261.32 57
7/14/2018 10 PM EDT 1,353.28 1,260.96 0
7/14/2018 11 PM EDT 1,353.37 1,260.78 0
7/15/2018 12 AM EDT 1,353.45 1,260.73 0
7/15/2018 1 AM EDT 1,353.52 1,260.49 0
7/15/2018 2 AM EDT 1,353.57 1,260.50 0
7/15/2018 3 AM EDT 1,353.62 1,260.59 0
7/15/2018 4 AM EDT 1,353.65 1,260.36 0
7/15/2018 5 AM EDT 1,353.60 1,262.37 193
7/15/2018 6 AM EDT 1,353.58 1,262.97 3,291
7/15/2018 7 AM EDT 1,353.52 1,262.86 3,199
7/15/2018 8 AM EDT 1,353.45 1,262.83 3,293
7/15/2018 9 AM EDT 1,353.45 1,261.16 41
7/15/2018 10 AM EDT 1,353.50 1,260.82 0
7/15/2018 11 AM EDT 1,353.52 1,260.70 0
7/15/2018 12 PM EDT 1,353.55 1,260.63 0
7/15/2018 1 PM EDT 1,353.58 1,260.42 0
7/15/2018 2 PM EDT 1,353.53 1,262.33 186
7/15/2018 3 PM EDT 1,353.52 1,262.89 3,241
7/15/2018 4 PM EDT 1,353.44 1,262.98 3,186
7/15/2018 5 PM EDT 1,353.35 1,262.82 3,406
7/15/2018 6 PM EDT 1,353.27 1,262.97 3,274
7/15/2018 7 PM EDT 1,353.17 1,262.99 3,341
7/15/2018 8 PM EDT 1,353.08 1,263.01 3,640
7/15/2018 9 PM EDT 1,353.16 1,261.28 76
7/15/2018 10 PM EDT 1,353.27 1,260.87 0
7/15/2018 11 PM EDT 1,353.34 1,260.72 0
7/16/2018 12 AM EDT 1,353.44 1,260.69 0
7/16/2018 1 AM EDT 1,353.54 1,260.46 0
7/16/2018 2 AM EDT 1,353.59 1,260.50 0

Elevations are in feet above sea level. Discharges are in cubic feet per second and are reported at the end of the hour.